Fletcher, Oklahoma
Current Conditions -  °F | °C
As of 1:13 PM on Saturday 20 Dec 2014 (Local Time) from KFSI Reporting Station
Overcast Overcast  
Wind Chill: 37°   Ceiling: 800
Heat Index: 43°   Visibility: 10mi
Dew Point: 43°   Wind: 9mph
Humidity: 100%   Direction: 170°S
Pressure: 30.16"   Gusts: NA
Location:  34.82°N, 98.24°W
Report Text: KFSI 201913Z AUTO 17008KT 10SM BKN008 OVC013 06/06 A3016 RMK AO2
Loading
Personal Weather Stations






























Interactive Weather Map New forecast layout! Learn more

10-Day Weather Forecast

Advertisements
Track Severe Weather on mobile